< < Back
Terminal Aerodrome Forecast


Current Version              Previous Versions:   1  2  3  4  5  6  7  8  9  

Terminal Aerodrome Forecast

742
FTUS42 KILM 291100 CCA
TAFILM
TAF COR
KILM 291130Z 2912/3012 04008KT P6SM SCT050 BKN090
     FM300000 VRB02KT P6SM SCT100=



Latest METAR

650
SAUS70 KWBC 291500 RRI
MTRILM
METAR KILM 291453Z AUTO 36004KT 10SM SCT043 27/18 A2991 RMK AO2 SLP126
T02670178 53004


USA.gov is the U.S. government's official web portal to all federal, state and local government web resources and services.